Airfield :
LOGIN :

Register | Disclaimer

   EN    FR    IT 

 










Legend :    VFR   Marginal VFR   IFR   Intensive IFR   Very Intensive IFR
Visi :
Ceiling :
>= 8 km
>= 3000ft
5 to 8 km
1000 to 3000 ft
1500m to 5 km
500 to 1000 ft
800 to 1500m
200 to 500 ft
< 800m
< 200 ft
Symbols :   Thunderstorms  Fog  Heavy snow  Heavy precipitations  Wind > 20 kt
SIGMETs :     Misc.  Thunderstorms  Icing  Turbulence  Mountain Waves  Volcanic Ashes






- Airport Elevation : 19 ft
- IATA code : LCY


EGLC - London City

CURRENT METAR :
  • 270820Z AUTO 32008KT 280V010 9999 -RA SCT012 SCT019 BKN028 04/02 Q0991 RERA

EXPIRED METARs :
  • 270750Z AUTO 33008KT 290V010 9999 BKN011 BKN016 03/01 Q0990
  • 270720Z AUTO 34009KT 260V020 9999 BKN013 03/01 Q0989
  • 270650Z AUTO 34009KT 310V010 9999 BKN012/// //////TCU 03/01 Q0988
  • 270620Z AUTO 34009KT 300V020 9999 BKN012 03/01 Q0987
  • 270550Z AUTO 35009KT 320V030 9999 -RA BKN011 BKN015 OVC033 03/01 Q0986

TAF TAF EGLC
Valid from the 27 at 09:00 until the 27 at 18:00 UTC


270759Z 2709/2718 33010KT 9999 SCT016
TEMPO 2709/2718 8000 -RA BKN010
PROB30
TEMPO 2709/2712 33018G28KT 4000 RADZ BKN007
BECMG 2712/2715 34018G30KT
ATIS : +44 20 7646 0224



MET'MAP, your aeronautical weather chart ! - Copyright ORBIFLY December 2007 - Disclaimer

ORBIFLY MET'MAP TEAM :

Programming & Development : Alexandra Zaïnal
Concept & original design : Baudouin d'Aumeries
Assistance for programming : Marc-Olivier Méhu
Technical & hardware support : Manuel Goepfert

Contact : metmap@orbifly.com




SOURCES & CREDITS :

   NOAA